Terminal Aerodrome Forecast
Issued by NWS

Home | Current Version | Previous Version | Text Only | Print | Product List | Glossary On
Versions: 1 2 3 4 5 6 7 8 9 10 11 12 13 14 15 16 17 18
298
FTUS43 KLSX 140254 AAA
TAFSUS
TAF AMD
KSUS 140254Z 1403/1424 32014G22KT P6SM OVC035
     FM140600 32012KT P6SM BKN025
     FM141200 34008KT P6SM SCT030
     FM141400 33005KT P6SM SCT070=

USA.gov is the U.S. government's official web portal to all federal, state and local government web resources and services.